Time;durP1;ratioP1;P1;durP2;ratioP2;P2;SDS_P1;SDS_P2;PMS_P1;PMS_P2;Temp;Humidity;BMP_temperature;BMP_pressure;BME280_temperature;BME280_humidity;BME280_pressure;Samples;Min_cycle;Max_cycle;Signal;HPM_P1;HPM_P2
2022/03/11 00:00:42;;;;;;;5.18;2.35;;;11.70;28.50;;;;;;2281969;55;21814;-64
2022/03/11 00:03:39;;;;;;;4.25;2.17;;;11.60;28.40;;;;;;2282889;56;20964;-64
2022/03/11 00:06:11;;;;;;;4.90;2.37;;;11.60;28.30;;;;;;2275625;55;21047;-64
2022/03/11 00:08:41;;;;;;;4.80;2.40;;;11.60;28.40;;;;;;2290017;54;20986;-65
2022/03/11 00:11:08;;;;;;;4.50;2.37;;;11.50;28.30;;;;;;2305891;55;20950;-65
2022/03/11 00:13:53;;;;;;;4.07;2.37;;;11.40;28.30;;;;;;2325982;55;20947;-65
2022/03/11 00:16:20;;;;;;;4.80;2.10;;;11.30;28.20;;;;;;2284404;54;21783;-63
2022/03/11 00:18:47;;;;;;;4.43;2.28;;;11.20;28.20;;;;;;2276052;56;21003;-66
2022/03/11 00:21:15;;;;;;;4.85;2.22;;;11.20;28.30;;;;;;2239740;55;21034;-66
2022/03/11 00:23:42;;;;;;;4.53;2.40;;;11.10;28.20;;;;;;2281907;54;21643;-65
2022/03/11 00:26:09;;;;;;;4.85;2.30;;;11.00;28.20;;;;;;2270711;55;20998;-66
2022/03/11 00:28:45;;;;;;;4.87;2.55;;;10.90;28.20;;;;;;2277753;56;21674;-64
2022/03/11 00:31:12;;;;;;;4.60;2.25;;;10.80;28.20;;;;;;2271233;59;21118;-65
2022/03/11 00:33:38;;;;;;;3.85;2.22;;;10.70;28.20;;;;;;2271667;56;20959;-65
2022/03/11 00:36:05;;;;;;;5.20;2.70;;;10.60;28.20;;;;;;2305673;55;20998;-64
2022/03/11 00:38:43;;;;;;;5.03;2.45;;;10.50;28.20;;;;;;2272595;56;20960;-65
2022/03/11 00:41:09;;;;;;;6.43;3.03;;;10.40;28.20;;;;;;2270165;56;21927;-64
2022/03/11 00:43:36;;;;;;;5.93;3.15;;;10.30;28.30;;;;;;2271598;56;20951;-64
2022/03/11 00:46:02;;;;;;;6.32;3.20;;;10.20;28.40;;;;;;2276276;55;20947;-64
2022/03/11 00:48:29;;;;;;;5.78;2.75;;;10.10;28.40;;;;;;2256583;57;20955;-65
2022/03/11 00:51:45;;;;;;;5.00;2.80;;;10.00;28.40;;;;;;2272575;55;21567;-65
2022/03/11 00:55:03;;;;;;;6.43;2.58;;;9.90;29.20;;;;;;2300509;55;20987;-64
2022/03/11 00:57:30;;;;;;;4.60;2.47;;;9.80;29.20;;;;;;2267990;55;21011;-64
2022/03/11 00:59:56;;;;;;;4.37;2.42;;;9.60;29.20;;;;;;2260996;55;21643;-64
2022/03/11 01:02:22;;;;;;;6.22;2.30;;;9.60;29.30;;;;;;2276113;56;20992;-65
2022/03/11 01:04:49;;;;;;;4.35;2.17;;;9.50;29.30;;;;;;2292600;55;20950;-65
2022/03/11 01:07:22;;;;;;;5.03;2.30;;;9.40;29.40;;;;;;2276798;55;21036;-66
2022/03/11 01:09:48;;;;;;;4.05;2.03;;;9.30;29.40;;;;;;2271617;56;20962;-65
2022/03/11 01:12:14;;;;;;;4.95;2.20;;;9.10;29.30;;;;;;2271371;55;21733;-63
2022/03/11 01:14:41;;;;;;;4.90;2.15;;;9.00;29.40;;;;;;2272415;56;20946;-65
2022/03/11 01:17:07;;;;;;;5.05;2.55;;;8.90;29.50;;;;;;2274224;56;21047;-65
2022/03/11 01:20:01;;;;;;;4.45;2.20;;;8.80;29.50;;;;;;2249439;57;21034;-64
2022/03/11 01:22:28;;;;;;;3.60;1.75;;;8.70;29.70;;;;;;2271654;56;21021;-65
2022/03/11 01:24:57;;;;;;;4.32;2.20;;;8.60;29.70;;;;;;2277217;56;21012;-65
2022/03/11 01:27:29;;;;;;;3.65;1.62;;;8.40;29.80;;;;;;2285335;55;20983;-63
2022/03/11 01:29:55;;;;;;;3.95;1.85;;;8.30;29.80;;;;;;2271161;56;20987;-65
2022/03/11 01:32:22;;;;;;;4.55;2.15;;;8.20;29.80;;;;;;2287629;55;21804;-64
2022/03/11 01:35:06;;;;;;;4.12;1.90;;;8.10;30.00;;;;;;2271230;55;20943;-65
2022/03/11 01:37:33;;;;;;;3.62;1.58;;;8.00;30.10;;;;;;2272641;55;21429;-65
2022/03/11 01:40:04;;;;;;;3.97;1.83;;;7.90;30.00;;;;;;2271731;55;20986;-65
2022/03/11 01:42:34;;;;;;;3.47;1.67;;;7.80;30.00;;;;;;2271858;55;21034;-66
2022/03/11 01:45:00;;;;;;;5.00;1.92;;;7.70;30.10;;;;;;2271044;55;20947;-66
2022/03/11 01:47:28;;;;;;;5.10;2.10;;;7.60;30.20;;;;;;2271193;56;21126;-66
2022/03/11 01:49:54;;;;;;;4.45;1.92;;;7.50;30.30;;;;;;2335250;54;21897;-64
2022/03/11 01:52:20;;;;;;;4.62;2.05;;;7.40;30.30;;;;;;2274144;55;21782;-66
2022/03/11 01:54:46;;;;;;;3.87;1.83;;;7.30;30.50;;;;;;2271551;55;21487;-63
2022/03/11 01:57:13;;;;;;;4.32;1.95;;;7.20;30.50;;;;;;2270470;55;21523;-65
2022/03/11 01:59:39;;;;;;;5.70;2.37;;;7.10;30.60;;;;;;2274980;55;20964;-64
2022/03/11 02:02:06;;;;;;;4.03;1.92;;;7.00;30.60;;;;;;2253255;55;21138;-64
2022/03/11 02:04:33;;;;;;;5.12;2.33;;;6.90;30.80;;;;;;2272908;54;20951;-65
2022/03/11 02:07:01;;;;;;;5.40;2.12;;;6.90;30.90;;;;;;2271611;55;21938;-65
2022/03/11 02:09:33;;;;;;;5.10;2.15;;;6.80;31.00;;;;;;2293453;54;20951;-66
2022/03/11 02:11:59;;;;;;;4.72;2.35;;;6.70;31.70;;;;;;2420600;54;21057;-64
2022/03/11 02:14:25;;;;;;;4.75;2.08;;;6.60;31.00;;;;;;2306229;54;20943;-64
2022/03/11 02:16:51;;;;;;;3.87;1.60;;;6.50;31.00;;;;;;2271297;56;21439;-65
2022/03/11 02:19:18;;;;;;;5.03;2.12;;;6.40;31.00;;;;;;2275593;54;21021;-63
2022/03/11 02:21:45;;;;;;;4.60;2.25;;;6.30;31.00;;;;;;2273559;56;21378;-63
2022/03/11 02:24:36;;;;;;;4.55;2.17;;;6.20;31.10;;;;;;2390662;55;20990;-63
2022/03/11 02:27:03;;;;;;;4.80;2.08;;;6.20;31.50;;;;;;2271454;55;20972;-65
2022/03/11 02:29:29;;;;;;;4.72;2.35;;;6.10;31.30;;;;;;2269925;55;20959;-65
2022/03/11 02:31:56;;;;;;;5.15;2.30;;;6.00;31.30;;;;;;2267008;55;20944;-64
2022/03/11 02:34:22;;;;;;;4.10;2.12;;;5.90;31.30;;;;;;2257753;55;21891;-64
2022/03/11 02:36:49;;;;;;;5.07;2.25;;;5.80;31.40;;;;;;2273567;56;21828;-64
2022/03/11 02:39:15;;;;;;;5.05;2.58;;;5.70;31.50;;;;;;2271540;55;20903;-63
2022/03/11 02:41:45;;;;;;;5.90;2.65;;;5.70;31.60;;;;;;2317746;54;20950;-65
2022/03/11 02:44:11;;;;;;;4.40;2.20;;;5.60;31.70;;;;;;2271519;55;20935;-64
2022/03/11 02:46:38;;;;;;;4.97;2.22;;;5.50;31.80;;;;;;2400252;54;20963;-65
2022/03/11 02:49:04;;;;;;;7.00;2.53;;;5.50;31.90;;;;;;2272507;56;20947;-65
2022/03/11 02:51:30;;;;;;;6.10;2.78;;;5.40;32.00;;;;;;2318273;54;20946;-65
2022/03/11 02:53:56;;;;;;;5.82;2.53;;;5.30;32.10;;;;;;2271066;56;21082;-65
2022/03/11 02:56:23;;;;;;;5.62;2.58;;;5.30;32.20;;;;;;2272072;55;20935;-65
2022/03/11 02:58:49;;;;;;;5.22;2.30;;;5.20;32.20;;;;;;2274471;56;20984;-63
2022/03/11 03:01:27;;;;;;;6.87;2.90;;;5.10;32.20;;;;;;2238943;55;20931;-64
2022/03/11 03:03:55;;;;;;;6.32;2.70;;;5.10;32.50;;;;;;2269782;55;20931;-65
2022/03/11 03:06:23;;;;;;;4.32;2.00;;;5.00;32.30;;;;;;2271471;56;21827;-65
2022/03/11 03:08:49;;;;;;;5.65;2.30;;;5.00;32.40;;;;;;2268245;55;21014;-62
2022/03/11 03:11:15;;;;;;;5.75;2.65;;;4.90;32.50;;;;;;2261913;56;20980;-65
2022/03/11 03:13:42;;;;;;;4.78;2.40;;;4.90;32.60;;;;;;2309915;55;20986;-65
2022/03/11 03:16:08;;;;;;;6.32;2.75;;;4.80;32.60;;;;;;2272027;55;20962;-63
2022/03/11 03:18:49;;;;;;;6.07;2.90;;;4.80;32.70;;;;;;2502049;54;20955;-63
2022/03/11 03:21:16;;;;;;;6.10;2.67;;;4.70;32.90;;;;;;2271261;55;21853;-64
2022/03/11 03:23:43;;;;;;;6.43;3.17;;;4.70;32.70;;;;;;2271514;56;21809;-66
2022/03/11 03:26:11;;;;;;;6.65;3.22;;;4.60;32.70;;;;;;2274721;55;21508;-63
2022/03/11 03:28:46;;;;;;;5.50;2.45;;;4.50;32.80;;;;;;2273636;56;21050;-65
2022/03/11 03:31:17;;;;;;;6.20;2.87;;;4.50;33.00;;;;;;2274360;54;20987;-63
2022/03/11 03:33:43;;;;;;;6.93;3.30;;;4.40;32.80;;;;;;2265512;55;20955;-62
2022/03/11 03:36:09;;;;;;;5.10;2.35;;;4.30;32.90;;;;;;2272578;55;21008;-65
2022/03/11 03:38:38;;;;;;;8.20;2.70;;;4.30;33.10;;;;;;2334882;54;21638;-65
2022/03/11 03:41:05;;;;;;;8.70;3.50;;;4.20;33.10;;;;;;2277081;55;21866;-64
2022/03/11 03:43:31;;;;;;;7.37;3.33;;;4.20;33.10;;;;;;2324534;55;20999;-64
2022/03/11 03:46:39;;;;;;;7.50;3.60;;;4.10;33.30;;;;;;2271660;56;20959;-65
2022/03/11 03:49:06;;;;;;;7.97;3.65;;;4.10;33.70;;;;;;2276335;56;20964;-64
2022/03/11 03:51:32;;;;;;;6.72;3.33;;;4.10;33.50;;;;;;2468589;54;21009;-64
2022/03/11 03:53:59;;;;;;;7.10;3.15;;;4.00;33.50;;;;;;2269846;55;20971;-63
2022/03/11 03:56:25;;;;;;;7.22;3.30;;;4.00;33.60;;;;;;2282078;55;20966;-63
2022/03/11 03:58:51;;;;;;;8.52;3.92;;;3.90;33.60;;;;;;2271184;56;20995;-65
2022/03/11 04:01:18;;;;;;;7.05;3.60;;;3.90;33.70;;;;;;2276141;55;20983;-63
2022/03/11 04:03:47;;;;;;;6.62;3.20;;;3.90;33.80;;;;;;2248411;55;21490;-62
2022/03/11 04:06:13;;;;;;;6.50;3.15;;;3.80;33.80;;;;;;2273967;56;20951;-63
2022/03/11 04:09:16;;;;;;;6.55;3.20;;;3.80;33.80;;;;;;2270919;55;20955;-64
2022/03/11 04:11:42;;;;;;;;;;;3.80;34.10;;;;;;2344295;54;21534;-63
2022/03/11 04:14:09;;;;;;;6.20;2.90;;;3.80;34.30;;;;;;2299539;54;20089;-65
2022/03/11 04:16:35;;;;;;;7.87;3.45;;;3.70;33.60;;;;;;2420789;54;20930;-65
2022/03/11 04:19:01;;;;;;;9.95;3.37;;;3.70;33.80;;;;;;2271504;55;20942;-65
2022/03/11 04:21:27;;;;;;;7.03;3.60;;;3.60;34.00;;;;;;2316403;55;21349;-62
2022/03/11 04:24:00;;;;;;;8.00;3.80;;;3.60;34.00;;;;;;2271494;55;21443;-63
2022/03/11 04:26:26;;;;;;;7.68;3.15;;;3.50;34.20;;;;;;2409546;54;21003;-64
2022/03/11 04:28:52;;;;;;;7.43;3.80;;;3.50;34.20;;;;;;2271673;56;20986;-65
2022/03/11 04:31:19;;;;;;;8.73;4.15;;;3.50;34.30;;;;;;2271520;55;20951;-62
2022/03/11 04:33:45;;;;;;;7.53;3.62;;;3.40;34.30;;;;;;2271487;56;21007;-64
2022/03/11 04:39:39;;;;;;;8.18;3.22;;;3.40;35.00;;;;;;2348475;55;21015;-62
2022/03/11 04:45:46;;;;;;;7.60;3.15;;;3.30;34.90;;;;;;2400749;55;21150;-65
2022/03/11 04:48:12;;;;;;;7.30;3.80;;;3.30;34.60;;;;;;2261180;56;21093;-64
2022/03/11 04:50:39;;;;;;;6.87;3.37;;;3.20;34.60;;;;;;2267396;55;21083;-64
2022/03/11 04:53:05;;;;;;;9.90;3.78;;;3.20;34.80;;;;;;2271910;55;21119;-63
2022/03/11 04:55:31;;;;;;;7.65;3.17;;;3.20;34.90;;;;;;2276289;54;20950;-62
2022/03/11 04:57:59;;;;;;;8.02;3.62;;;3.20;35.10;;;;;;2270209;56;20932;-65
2022/03/11 05:00:25;;;;;;;6.82;3.03;;;3.20;35.20;;;;;;2270593;56;20963;-65
2022/03/11 05:02:52;;;;;;;8.43;4.20;;;3.20;35.20;;;;;;2272201;55;20951;-63
2022/03/11 05:05:18;;;;;;;9.15;4.87;;;3.10;35.20;;;;;;2271033;55;20967;-65
2022/03/11 05:07:44;;;;;;;11.15;5.25;;;3.10;35.30;;;;;;2501674;54;20939;-65
2022/03/11 05:10:14;;;;;;;9.23;5.25;;;3.10;35.30;;;;;;2271404;56;20979;-64
2022/03/11 05:12:42;;;;;;;7.35;3.87;;;3.10;35.50;;;;;;2272771;55;21901;-63
2022/03/11 05:15:26;;;;;;;10.18;4.57;;;3.10;35.40;;;;;;2277422;55;21014;-64
2022/03/11 05:17:56;;;;;;;9.40;4.53;;;3.10;35.90;;;;;;2272201;55;21048;-64
2022/03/11 05:20:22;;;;;;;8.82;4.35;;;3.10;35.70;;;;;;2276413;55;20931;-64
2022/03/11 05:23:00;;;;;;;8.40;4.00;;;3.10;35.70;;;;;;2277764;56;20932;-63
2022/03/11 05:28:58;;;;;;;10.30;4.55;;;3.10;35.90;;;;;;2501587;54;21047;-63
2022/03/11 05:31:25;;;;;;;10.23;4.43;;;3.10;35.60;;;;;;2271355;56;20922;-64
2022/03/11 05:33:53;;;;;;;14.18;5.53;;;3.10;35.70;;;;;;2272954;55;20943;-64
2022/03/11 05:36:19;;;;;;;10.90;4.85;;;3.10;35.70;;;;;;2501969;54;21278;-65
2022/03/11 05:42:25;;;;;;;9.52;4.10;;;3.00;35.90;;;;;;2271438;55;20976;-64
2022/03/11 05:44:52;;;;;;;11.10;5.28;;;3.00;35.60;;;;;;2486369;54;21002;-63
2022/03/11 05:47:27;;;;;;;10.63;4.72;;;3.00;35.70;;;;;;2435799;54;20969;-62
2022/03/11 05:49:59;;;;;;;9.68;4.57;;;3.00;36.00;;;;;;2314520;54;21027;-64
2022/03/11 05:52:26;;;;;;;10.40;4.35;;;2.90;35.90;;;;;;2398285;54;21855;-62
2022/03/11 05:58:20;;;;;;;8.73;4.53;;;2.90;36.20;;;;;;2501357;54;21338;-65
2022/03/11 06:00:49;;;;;;;10.73;4.20;;;2.90;35.90;;;;;;2270240;55;20979;-62
2022/03/11 06:03:18;;;;;;;8.73;4.45;;;2.90;36.10;;;;;;2270923;55;20999;-65
2022/03/11 06:05:44;;;;;;;11.65;4.53;;;2.90;36.10;;;;;;2275170;55;20968;-62
2022/03/11 06:08:25;;;;;;;14.77;5.68;;;2.90;36.10;;;;;;2272852;56;21033;-65
2022/03/11 06:10:51;;;;;;;16.92;6.37;;;2.80;36.40;;;;;;2274210;55;21706;-63
2022/03/11 06:13:18;;;;;;;14.35;5.85;;;2.80;36.20;;;;;;2271343;56;21673;-65
2022/03/11 06:16:18;;;;;;;15.90;6.55;;;2.80;36.30;;;;;;2413774;54;20931;-62
2022/03/11 06:18:44;;;;;;;10.68;5.10;;;2.80;36.70;;;;;;2271232;56;20991;-64
2022/03/11 06:21:11;;;;;;;10.35;4.60;;;2.80;36.40;;;;;;2287985;54;20992;-63
2022/03/11 06:23:37;;;;;;;15.18;5.32;;;2.80;36.40;;;;;;2342736;54;20955;-62
2022/03/11 06:26:04;;;;;;;15.35;6.35;;;2.80;36.40;;;;;;2279304;55;21738;-63
2022/03/11 06:28:30;;;;;;;12.25;5.68;;;2.80;36.50;;;;;;2275652;56;21548;-65
2022/03/11 06:30:57;;;;;;;12.18;5.80;;;2.80;36.60;;;;;;2246569;55;20979;-62
2022/03/11 06:33:23;;;;;;;12.50;5.60;;;2.80;36.60;;;;;;2276565;55;21544;-63
2022/03/11 06:35:50;;;;;;;10.65;5.20;;;2.80;36.70;;;;;;2276197;55;20972;-65
2022/03/11 06:38:19;;;;;;;12.88;6.30;;;2.80;36.70;;;;;;2270274;54;21021;-62
2022/03/11 06:40:45;;;;;;;10.50;4.93;;;2.80;36.90;;;;;;2271939;55;20972;-63
2022/03/11 06:43:12;;;;;;;12.80;6.28;;;2.80;36.90;;;;;;2272832;56;21034;-62
2022/03/11 06:49:06;;;;;;;11.35;5.47;;;2.80;37.30;;;;;;2271723;56;20986;-64
2022/03/11 06:51:32;;;;;;;12.18;4.93;;;2.90;37.10;;;;;;2271606;55;21011;-64
2022/03/11 06:54:01;;;;;;;13.32;5.53;;;2.90;37.20;;;;;;2271108;55;20963;-64
2022/03/11 06:56:28;;;;;;;12.80;4.87;;;2.90;37.30;;;;;;2271328;55;20919;-64
2022/03/11 06:58:55;;;;;;;10.25;4.80;;;3.00;37.40;;;;;;2271008;56;20939;-64
2022/03/11 07:01:21;;;;;;;13.43;5.97;;;3.00;38.10;;;;;;2503753;54;21005;-64
2022/03/11 07:03:48;;;;;;;11.25;5.68;;;3.10;37.60;;;;;;2300544;55;21060;-64
2022/03/11 07:06:15;;;;;;;14.13;6.00;;;3.10;37.80;;;;;;2503980;54;21447;-63
2022/03/11 07:08:43;;;;;;;11.50;5.15;;;3.20;37.90;;;;;;2276608;55;21419;-63
2022/03/11 07:11:09;;;;;;;12.85;6.05;;;3.20;37.90;;;;;;2275163;54;20920;-64
2022/03/11 07:13:38;;;;;;;17.65;8.55;;;3.30;37.90;;;;;;2294966;54;21503;-63
2022/03/11 07:16:05;;;;;;;16.60;8.05;;;3.40;38.10;;;;;;2271124;55;20979;-65
2022/03/11 07:18:31;;;;;;;16.42;7.65;;;3.40;38.20;;;;;;2270491;55;20903;-63
2022/03/11 07:21:00;;;;;;;16.92;8.50;;;3.50;38.20;;;;;;2271104;55;20975;-64
2022/03/11 07:23:29;;;;;;;19.77;9.45;;;3.60;38.30;;;;;;2276572;55;21016;-63
2022/03/11 07:29:23;;;;;;;19.27;8.40;;;3.80;38.90;;;;;;2270896;55;21498;-62
2022/03/11 07:31:50;;;;;;;19.67;8.55;;;3.90;38.60;;;;;;2256920;55;20935;-65
2022/03/11 07:34:16;;;;;;;16.42;8.13;;;3.90;38.60;;;;;;2275919;55;20978;-65
2022/03/11 07:36:54;;;;;;;16.75;8.43;;;4.00;38.70;;;;;;2276109;56;20975;-63
2022/03/11 07:39:21;;;;;;;19.02;9.77;;;4.20;39.10;;;;;;2276073;54;20984;-65
2022/03/11 07:41:49;;;;;;;14.57;6.90;;;4.30;38.90;;;;;;2273623;56;21003;-65
2022/03/11 07:44:15;;;;;;;13.30;6.75;;;4.40;39.10;;;;;;2271661;56;20999;-63
2022/03/11 07:46:44;;;;;;;12.82;6.55;;;4.50;39.10;;;;;;2275678;55;20990;-65
2022/03/11 07:49:10;;;;;;;18.58;7.12;;;4.60;39.20;;;;;;2274589;55;20959;-64
2022/03/11 07:51:37;;;;;;;16.35;7.30;;;4.70;39.30;;;;;;2272826;55;21010;-65
2022/03/11 07:54:07;;;;;;;15.57;7.03;;;4.80;39.30;;;;;;2416241;54;20919;-64
2022/03/11 07:56:33;;;;;;;14.05;6.20;;;5.00;39.50;;;;;;2272796;55;21801;-65
2022/03/11 07:59:00;;;;;;;15.48;6.55;;;5.10;39.40;;;;;;2270733;55;20998;-64
2022/03/11 08:01:26;;;;;;;13.20;6.35;;;5.20;39.40;;;;;;2266806;56;20984;-63
2022/03/11 08:03:52;;;;;;;14.57;6.45;;;5.40;39.50;;;;;;2339648;54;20964;-66
2022/03/11 08:06:21;;;;;;;14.15;7.15;;;5.50;39.40;;;;;;2271710;55;20917;-65
2022/03/11 08:08:49;;;;;;;15.15;6.97;;;5.60;39.40;;;;;;2276784;55;21046;-64
2022/03/11 08:11:16;;;;;;;15.25;7.47;;;5.70;39.40;;;;;;2272273;56;21411;-65
2022/03/11 08:13:51;;;;;;;14.38;6.57;;;5.80;39.40;;;;;;2277335;55;20940;-65
2022/03/11 08:16:17;;;;;;;17.00;6.50;;;5.90;39.50;;;;;;2275235;56;20971;-64
2022/03/11 08:18:44;;;;;;;14.27;6.93;;;6.10;39.40;;;;;;2274094;56;20943;-65
2022/03/11 08:21:11;;;;;;;14.38;7.30;;;6.20;39.50;;;;;;2278795;55;20928;-65
2022/03/11 08:23:39;;;;;;;14.75;7.80;;;6.40;39.70;;;;;;2290726;54;21504;-65
2022/03/11 08:26:05;;;;;;;16.75;8.48;;;6.60;39.90;;;;;;2277421;54;21255;-65
2022/03/11 08:28:34;;;;;;;15.10;8.15;;;6.80;39.90;;;;;;2274476;56;21115;-65
2022/03/11 08:31:41;;;;;;;13.48;7.55;;;6.90;39.80;;;;;;2277991;56;20938;-65
2022/03/11 08:34:10;;;;;;;13.10;6.12;;;7.10;40.30;;;;;;2271474;55;21008;-66
2022/03/11 08:36:36;;;;;;;12.32;7.32;;;7.40;40.10;;;;;;2271942;55;20951;-64
2022/03/11 08:39:06;;;;;;;12.80;6.82;;;7.60;40.00;;;;;;2271159;55;20966;-64
2022/03/11 08:41:33;;;;;;;11.32;6.70;;;7.80;40.00;;;;;;2273216;55;20969;-65
2022/03/11 08:44:03;;;;;;;12.07;6.45;;;8.00;40.10;;;;;;2272706;56;20964;-65
2022/03/11 08:46:30;;;;;;;13.00;6.75;;;8.20;40.40;;;;;;2271643;55;20983;-64
2022/03/11 08:48:56;;;;;;;11.57;6.53;;;8.50;40.40;;;;;;2272563;55;20958;-66
2022/03/11 08:51:23;;;;;;;14.05;7.50;;;8.70;40.60;;;;;;2340479;54;20934;-64
2022/03/11 08:53:49;;;;;;;11.48;6.50;;;9.00;40.60;;;;;;2272923;56;20959;-66
2022/03/11 08:56:21;;;;;;;11.10;6.32;;;9.30;40.70;;;;;;2276652;55;20998;-66
2022/03/11 08:58:49;;;;;;;13.15;6.07;;;9.60;40.50;;;;;;2307276;55;21054;-66
2022/03/11 09:02:37;;;;;;;13.45;6.93;;;9.90;40.40;;;;;;2272646;55;20943;-66
2022/03/11 09:05:05;;;;;;;11.27;6.15;;;10.30;39.60;;;;;;2271780;55;20958;-65
2022/03/11 09:07:35;;;;;;;12.37;6.82;;;10.50;39.30;;;;;;2272199;55;21801;-66
2022/03/11 09:10:04;;;;;;;12.20;6.82;;;10.80;39.20;;;;;;2307836;54;21046;-66
2022/03/11 09:12:33;;;;;;;11.77;6.18;;;10.90;39.00;;;;;;2306581;55;20987;-66
2022/03/11 09:15:00;;;;;;;10.88;6.03;;;11.20;39.00;;;;;;2272083;55;21011;-65
2022/03/11 09:17:26;;;;;;;11.48;6.65;;;11.40;38.90;;;;;;2381962;54;20968;-66
2022/03/11 09:20:00;;;;;;;10.43;6.35;;;11.60;38.80;;;;;;2311413;55;20958;-65
2022/03/11 09:23:02;;;;;;;11.02;6.00;;;11.80;38.70;;;;;;2280300;55;21024;-65
2022/03/11 09:25:40;;;;;;;10.02;5.95;;;12.00;38.40;;;;;;2281418;55;21026;-66
2022/03/11 09:31:27;;;;;;;11.80;5.18;;;12.40;38.40;;;;;;2267741;56;20073;-66
2022/03/11 09:33:54;;;;;;;10.55;6.43;;;12.60;38.40;;;;;;2279813;56;20959;-66
2022/03/11 09:36:25;;;;;;;13.10;7.15;;;12.80;38.60;;;;;;2268445;56;20982;-66
2022/03/11 09:39:19;;;;;;;11.00;6.07;;;13.10;38.70;;;;;;2303222;55;20951;-66
2022/03/11 09:41:55;;;;;;;12.18;6.72;;;13.30;38.70;;;;;;2273174;56;21052;-66
2022/03/11 09:48:11;;;;;;;11.48;6.68;;;13.90;38.20;;;;;;2275637;55;21052;-66
2022/03/11 09:50:44;;;;;;;10.52;5.82;;;14.20;38.20;;;;;;2259579;55;20951;-66
2022/03/11 09:53:13;;;;;;;10.90;6.45;;;14.40;38.20;;;;;;2274827;55;21043;-66
2022/03/11 09:56:28;;;;;;;11.98;6.72;;;14.60;37.90;;;;;;2276755;55;20955;-66
2022/03/11 09:59:12;;;;;;;10.90;6.45;;;14.80;37.50;;;;;;2272608;55;20991;-66
2022/03/11 10:01:41;;;;;;;10.60;5.97;;;15.10;37.20;;;;;;2298135;55;20974;-67
2022/03/11 10:11:38;;;;;;;8.35;4.93;;;15.80;37.10;;;;;;2279578;54;21024;-67
2022/03/11 10:15:37;;;;;;;7.78;5.03;;;16.10;37.50;;;;;;2280291;55;21020;-66
2022/03/11 10:19:39;;;;;;;9.15;5.75;;;16.50;38.10;;;;;;2272833;56;21072;-66
2022/03/11 10:22:23;;;;;;;9.95;5.93;;;17.00;38.10;;;;;;2268621;58;21135;-67
2022/03/11 10:28:54;;;;;;;;;;;;;;;;;;;;;
2022/03/11 10:31:47;;;;;;;8.80;5.85;;;18.20;36.60;;;;;;2171117;59;21042;-66
2022/03/11 10:34:24;;;;;;;9.10;5.72;;;18.50;35.50;;;;;;2170946;59;21015;-67
2022/03/11 10:36:53;;;;;;;10.10;6.28;;;18.60;35.50;;;;;;2173217;58;21009;-67
2022/03/11 10:39:40;;;;;;;11.18;6.18;;;18.70;35.60;;;;;;2171453;59;21059;-67
2022/03/11 10:42:35;;;;;;;8.50;5.30;;;18.90;34.90;;;;;;2171093;58;21049;-67
2022/03/11 10:45:09;;;;;;;10.32;5.90;;;19.00;34.40;;;;;;2199144;57;21605;-67
2022/03/11 10:47:39;;;;;;;9.80;6.28;;;19.10;34.50;;;;;;2169889;59;21137;-67
2022/03/11 10:50:15;;;;;;;10.70;7.07;;;19.20;34.30;;;;;;2169316;59;21024;-67
2022/03/11 10:52:50;;;;;;;10.07;5.85;;;19.20;33.70;;;;;;2191632;57;21057;-66
2022/03/11 10:55:38;;;;;;;9.32;5.62;;;19.30;33.50;;;;;;2173505;59;21080;-68
2022/03/11 10:58:16;;;;;;;9.95;6.00;;;19.40;33.40;;;;;;2172101;59;21005;-66
2022/03/11 11:00:43;;;;;;;9.48;5.60;;;19.50;33.40;;;;;;2175164;58;21086;-67
2022/03/11 11:03:13;;;;;;;10.30;5.50;;;19.50;33.10;;;;;;2151923;58;21438;-67
2022/03/11 11:09:26;;;;;;;9.40;6.15;;;19.50;32.50;;;;;;2314796;56;21069;-67
2022/03/11 11:11:56;;;;;;;8.85;5.05;;;19.50;31.80;;;;;;2275148;55;20971;-67
2022/03/11 11:14:25;;;;;;;8.25;5.20;;;19.50;32.40;;;;;;2277595;55;20952;-67
2022/03/11 11:20:52;;;;;;;9.50;5.55;;;19.50;31.90;;;;;;2312173;55;21030;-67
2022/03/11 11:23:18;;;;;;;9.43;5.57;;;19.50;31.60;;;;;;2273841;55;21468;-67
2022/03/11 11:25:48;;;;;;;8.95;5.47;;;19.50;31.90;;;;;;2278021;55;20952;-67
2022/03/11 11:28:26;;;;;;;10.88;5.30;;;19.40;31.60;;;;;;2273655;55;21035;-67
2022/03/11 11:30:54;;;;;;;8.95;4.93;;;19.40;31.50;;;;;;2276808;55;20996;-67
2022/03/11 11:33:26;;;;;;;9.07;5.85;;;19.40;31.80;;;;;;2326499;54;21063;-68
2022/03/11 11:36:03;;;;;;;8.85;5.35;;;19.40;31.80;;;;;;2279693;55;20992;-68
2022/03/11 11:38:34;;;;;;;9.35;5.80;;;19.30;31.50;;;;;;2303142;54;21051;-67
2022/03/11 11:41:03;;;;;;;9.60;6.15;;;19.30;31.30;;;;;;2290219;55;20959;-67
2022/03/11 11:43:30;;;;;;;9.55;5.80;;;19.30;31.20;;;;;;2251632;55;20979;-67
2022/03/11 11:50:19;;;;;;;8.55;5.20;;;19.10;30.30;;;;;;2253918;58;21022;-67
2022/03/11 11:53:57;;;;;;;10.75;6.07;;;19.00;30.20;;;;;;2196224;57;21078;-67
2022/03/11 11:56:39;;;;;;;11.68;6.20;;;18.90;30.20;;;;;;2169303;57;21151;-67
2022/03/11 12:09:11;;;;;;;9.15;5.35;;;18.70;30.40;;;;;;2173283;57;21018;-66
2022/03/11 12:11:52;;;;;;;;;;;;;;;;;;;;;
2022/03/11 12:15:18;;;;;;;10.65;6.53;;;18.70;30.60;;;;;;2113971;60;21077;-67
2022/03/11 12:17:55;;;;;;;10.60;6.53;;;18.70;30.40;;;;;;2121476;59;21466;-69
2022/03/11 12:23:21;;;;;;;9.18;5.80;;;18.70;30.40;;;;;;2122187;59;21039;-66
2022/03/11 12:26:09;;;;;;;10.80;5.97;;;18.70;30.70;;;;;;2169353;58;21102;-67
2022/03/11 12:28:42;;;;;;;12.13;6.07;;;18.70;30.40;;;;;;2153726;58;21065;-67
2022/03/11 12:31:21;;;;;;;10.57;6.10;;;18.80;30.80;;;;;;2125258;58;21760;-67
2022/03/11 12:33:53;;;;;;;11.25;6.68;;;18.70;30.10;;;;;;2151141;60;21069;-68
2022/03/11 12:36:24;;;;;;;10.75;7.03;;;18.70;30.20;;;;;;2149610;59;21672;-67
2022/03/11 12:38:59;;;;;;;9.88;5.97;;;18.80;30.80;;;;;;2194468;58;21543;-67
2022/03/11 12:41:31;;;;;;;11.30;6.62;;;18.80;30.20;;;;;;2131752;60;20993;-67
2022/03/11 12:44:01;;;;;;;10.85;6.57;;;18.90;30.10;;;;;;2150815;59;20986;-67
2022/03/11 12:46:28;;;;;;;11.77;5.90;;;18.90;30.00;;;;;;2147606;58;21030;-67
2022/03/11 12:48:54;;;;;;;10.80;6.03;;;19.00;30.20;;;;;;2152603;59;21549;-69
2022/03/11 12:51:45;;;;;;;12.68;6.97;;;19.10;30.40;;;;;;2168474;55;21460;-67
2022/03/11 12:54:15;;;;;;;10.27;6.53;;;19.30;30.00;;;;;;2278438;55;20921;-67
2022/03/11 12:57:27;;;;;;;8.73;5.93;;;19.30;30.10;;;;;;2271739;55;21748;-67
2022/03/11 13:00:19;;;;;;;8.80;5.80;;;19.50;30.10;;;;;;2266357;56;21808;-66
2022/03/11 13:02:52;;;;;;;9.57;5.80;;;19.60;29.90;;;;;;2274641;55;20991;-67
2022/03/11 13:05:26;;;;;;;13.20;5.90;;;19.70;29.90;;;;;;2274880;55;20984;-66
2022/03/11 13:08:00;;;;;;;11.45;6.10;;;19.70;29.60;;;;;;2261024;56;20934;-67
2022/03/11 13:10:29;;;;;;;10.80;6.90;;;19.70;29.50;;;;;;2278790;55;20923;-67
2022/03/11 13:16:26;;;;;;;9.63;6.22;;;19.60;29.00;;;;;;2274473;54;20996;-67
2022/03/11 13:18:53;;;;;;;11.15;6.40;;;19.50;29.30;;;;;;2270947;56;20987;-67
2022/03/11 13:21:22;;;;;;;11.43;7.28;;;19.50;29.40;;;;;;2287903;54;21032;-67
2022/03/11 13:23:49;;;;;;;9.90;5.97;;;19.40;29.30;;;;;;2318691;54;21015;-69
2022/03/11 13:26:21;;;;;;;9.13;6.00;;;19.40;29.30;;;;;;2281915;55;21015;-68
2022/03/11 13:29:00;;;;;;;11.88;7.35;;;19.30;29.30;;;;;;2267139;56;20989;-68
2022/03/11 13:31:31;;;;;;;11.55;7.07;;;19.30;29.20;;;;;;2259800;55;20935;-67
2022/03/11 13:43:32;;;;;;;12.20;6.20;;;19.00;29.10;;;;;;2271277;55;21448;-67
2022/03/11 13:49:53;;;;;;;10.63;6.47;;;19.00;29.00;;;;;;2273516;56;20922;-69
2022/03/11 13:52:35;;;;;;;10.85;6.45;;;19.00;29.00;;;;;;2274408;56;20975;-69
2022/03/11 13:55:10;;;;;;;12.20;6.07;;;19.00;29.20;;;;;;2278318;56;20935;-68
2022/03/11 13:57:39;;;;;;;9.82;6.35;;;19.00;29.10;;;;;;2339577;54;21022;-67
2022/03/11 14:00:20;;;;;;;10.57;6.35;;;19.00;29.20;;;;;;2272466;55;20967;-67
2022/03/11 14:02:49;;;;;;;11.10;6.12;;;19.00;29.00;;;;;;2272214;56;20968;-67
2022/03/11 14:05:23;;;;;;;8.48;5.78;;;18.90;29.10;;;;;;2319510;54;21409;-68
2022/03/11 14:08:07;;;;;;;11.20;6.45;;;18.90;29.10;;;;;;2264809;55;21828;-67
2022/03/11 14:10:47;;;;;;;10.23;5.75;;;18.80;29.10;;;;;;2326605;54;21016;-69
2022/03/11 14:13:35;;;;;;;9.90;5.82;;;18.80;29.00;;;;;;2270505;55;20986;-67
2022/03/11 14:21:55;;;;;;;10.20;6.30;;;18.70;28.90;;;;;;2271592;55;21759;-67
2022/03/11 14:25:11;;;;;;;10.18;6.47;;;18.60;29.00;;;;;;2272952;55;20959;-67
2022/03/11 14:27:49;;;;;;;10.85;6.90;;;18.50;28.80;;;;;;2319634;54;20979;-67
2022/03/11 14:30:16;;;;;;;11.27;7.00;;;18.40;28.80;;;;;;2274615;55;20967;-67
2022/03/11 14:32:44;;;;;;;9.55;6.50;;;18.40;28.90;;;;;;2327374;55;20986;-67
2022/03/11 14:35:22;;;;;;;11.65;7.12;;;18.30;29.00;;;;;;2274848;55;21046;-67
2022/03/11 14:37:57;;;;;;;11.30;5.85;;;18.30;29.10;;;;;;2310692;55;21022;-67
2022/03/11 14:40:33;;;;;;;10.60;6.37;;;18.20;29.10;;;;;;2288530;55;21035;-67
2022/03/11 14:43:01;;;;;;;9.93;5.97;;;18.10;29.20;;;;;;2277866;55;21882;-66
2022/03/11 14:45:42;;;;;;;12.15;6.00;;;18.10;29.30;;;;;;2271841;55;21036;-68
2022/03/11 14:48:31;;;;;;;9.65;5.40;;;18.10;29.30;;;;;;2257371;55;21742;-66